Roundaway, Mississippi
Current Conditions -  °F | °C
As of 5:55 AM on Tuesday 21 Oct 2014 (Local Time) from KCKM Reporting Station
Clear Clear  
Wind Chill: 54°   Ceiling: Unl
Heat Index: 54°   Visibility: 2.5mi
Dew Point: 54°   Wind: 0mph
Humidity: 100%   Direction: NA
Pressure: 30.06"   Gusts: NA
Location:  34.1809°N, 90.6118°W
Report Text: KCKM 211055Z AUTO 00000KT 2 1/2SM CLR 12/12 A3006 RMK AO1 VSBY 1 1/2V5
Loading
Personal Weather Stations






























Interactive Weather Map
Tropical Storm Tracking
New forecast layout! Learn more

10-Day Weather Forecast

Advertisements
Track Severe Weather on mobile